首页
METAR-TAF:

METAR-TAF

机场 :

喀土穆国际机场

喀土穆, 苏丹共和国

纬度: 15-36N, 经度: 032-33E, 海拔: 382米

当前天气观测

该预报发布于28分钟前的21:00 UTC
风速4节,风向北转东北
温度 33°C
湿度 30%
气压 1011 hPa
能见度10公里或以上
1500米以下无云,无积雨云

METAR: HSSS 222100Z 03004KT CAVOK 33/13 Q1011 NOSIG

时间: 00:28 (21:28 UTC)

预报

该预报发布于4小时和28分钟前的17:00 UTC
预报有效从22日的 18点(UTC)到 23日的 24点(UTC)
风速8节,风向东转东北,有时为18节阵风
能見度: 6000
少量云层高于4000英尺
散云层高于14000英尺

TAF: HSSS 221700Z 2218/2324 07008G18KT 6000 FEW040 SCT140

超过4000个机场的气象观测和天气预报(METAR&TAF报告)。

可查询的气象台以黄色和红色小点在地图上表示。

将鼠标移到小点上方,可查看气象台名称。

然后点击查看天气观测和预报。

如需切换地图:点击带黑十字的绿色按钮放大地图;点击带横线的绿色按钮缩小地图;或者点击绿色箭头查看邻近地区的地图。


METAR-TAF: